createdAt,value
2023-03-16T00:00:13.929Z,-0.30
2023-03-16T00:02:41.535Z,-0.40
2023-03-16T00:05:09.229Z,-0.40
2023-03-16T00:07:35.867Z,2.70
2023-03-16T00:10:03.735Z,-0.50
2023-03-16T00:12:34.572Z,-0.50
2023-03-16T00:15:02.092Z,-0.50
2023-03-16T00:17:28.664Z,-0.60
2023-03-16T00:19:55.879Z,-0.60
2023-03-16T00:22:23.712Z,-0.50
2023-03-16T00:24:50.375Z,-0.50
2023-03-16T00:27:17.258Z,-0.50
2023-03-16T00:29:47.470Z,-0.50
2023-03-16T00:32:16.374Z,-0.60
2023-03-16T00:34:43.534Z,-0.60
2023-03-16T00:37:10.302Z,-0.70
2023-03-16T00:39:36.925Z,-0.80
2023-03-16T00:42:04.417Z,-0.80
2023-03-16T00:44:31.587Z,-0.80
2023-03-16T00:46:58.302Z,-0.80
2023-03-16T00:49:25.032Z,-0.80
2023-03-16T00:51:51.631Z,-0.90
2023-03-16T00:54:18.285Z,-0.90
2023-03-16T00:56:44.938Z,-1.00
2023-03-16T00:59:12.984Z,-1.00
2023-03-16T01:01:40.135Z,-1.00
2023-03-16T01:04:06.801Z,-1.10
2023-03-16T01:06:33.490Z,-1.00
2023-03-16T01:09:00.095Z,-1.10
2023-03-16T01:11:26.772Z,-1.10
2023-03-16T01:13:54.567Z,-1.00
2023-03-16T01:16:23.271Z,-1.00
2023-03-16T01:18:49.985Z,-1.10
2023-03-16T01:21:16.828Z,-1.10
2023-03-16T01:23:44.207Z,-1.10
2023-03-16T01:26:11.444Z,-1.10
2023-03-16T01:28:39.019Z,-1.00
2023-03-16T01:31:07.744Z,-0.90
2023-03-16T01:33:34.675Z,-0.90
2023-03-16T01:36:04.057Z,-0.80
2023-03-16T01:38:31.133Z,-0.80
2023-03-16T01:40:57.819Z,-0.80
2023-03-16T01:43:26.669Z,-0.80
2023-03-16T01:46:05.727Z,-0.80
2023-03-16T01:48:37.935Z,-0.90
2023-03-16T01:51:09.797Z,-0.90
2023-03-16T01:53:37.965Z,-0.90
2023-03-16T01:56:07.025Z,-3.70
2023-03-16T01:58:34.245Z,-0.90
2023-03-16T02:01:01.187Z,-0.80
2023-03-16T02:03:27.891Z,-0.70
2023-03-16T02:05:59.243Z,-0.70
2023-03-16T02:08:27.011Z,-0.70
2023-03-16T02:10:55.486Z,-0.60
2023-03-16T02:13:23.259Z,-0.60
2023-03-16T02:15:51.177Z,-0.60
2023-03-16T02:18:18.567Z,-0.50
2023-03-16T02:20:48.250Z,-0.60
2023-03-16T02:23:18.744Z,-0.50
2023-03-16T02:25:48.422Z,-0.50
2023-03-16T02:28:19.619Z,-0.50
2023-03-16T02:30:46.958Z,-0.50
2023-03-16T02:33:14.286Z,-0.40
2023-03-16T02:35:41.181Z,-0.40
2023-03-16T02:38:07.895Z,-0.40
2023-03-16T02:40:35.299Z,-0.30
2023-03-16T02:43:05.029Z,-0.30
2023-03-16T02:45:35.729Z,-0.30
2023-03-16T02:48:05.279Z,-0.30
2023-03-16T02:50:31.940Z,-0.30
2023-03-16T02:52:58.555Z,-0.30
2023-03-16T02:55:25.150Z,-0.30
2023-03-16T02:57:52.307Z,-0.20
2023-03-16T03:00:19.223Z,-0.10
2023-03-16T03:02:46.072Z,-0.10
2023-03-16T03:05:13.110Z,-0.10
2023-03-16T03:07:39.753Z,0.00
2023-03-16T03:10:06.929Z,0.00
2023-03-16T03:12:33.811Z,0.00
2023-03-16T03:15:00.526Z,-0.10
2023-03-16T03:17:30.268Z,-0.10
2023-03-16T03:19:58.309Z,-0.10
2023-03-16T03:22:26.331Z,-0.10
2023-03-16T03:24:53.257Z,-0.10
2023-03-16T03:27:22.508Z,-0.10
2023-03-16T03:29:49.195Z,-0.10
2023-03-16T03:32:15.828Z,-0.20
2023-03-16T03:34:42.651Z,-0.20
2023-03-16T03:37:09.751Z,-0.20
2023-03-16T03:39:36.394Z,-0.20
2023-03-16T03:42:03.152Z,-0.30
2023-03-16T03:44:29.854Z,-0.20
2023-03-16T03:46:56.461Z,-0.20
2023-03-16T03:49:23.126Z,-0.30
2023-03-16T03:51:49.756Z,-0.30
2023-03-16T03:54:16.383Z,-0.30
2023-03-16T03:56:43.308Z,-0.30
2023-03-16T03:59:09.917Z,-0.30
2023-03-16T04:01:36.559Z,-0.30
2023-03-16T04:04:03.187Z,-0.30
2023-03-16T04:06:29.851Z,-0.40
2023-03-16T04:08:56.536Z,-0.40
2023-03-16T04:11:23.154Z,-0.40
2023-03-16T04:13:51.040Z,-0.30
2023-03-16T04:16:17.822Z,-0.30
2023-03-16T04:18:45.422Z,-0.30
2023-03-16T04:21:16.711Z,-0.30
2023-03-16T04:23:43.769Z,-0.30
2023-03-16T04:26:10.663Z,-0.30
2023-03-16T04:28:37.336Z,-0.30
2023-03-16T04:31:08.488Z,-0.40
2023-03-16T04:33:35.497Z,-0.50
2023-03-16T04:36:05.193Z,-0.50
2023-03-16T04:38:34.256Z,-0.50
2023-03-16T04:41:01.697Z,-0.50
2023-03-16T04:43:28.675Z,-0.60
2023-03-16T04:45:55.423Z,-0.60
2023-03-16T04:48:22.085Z,-0.60
2023-03-16T04:50:48.810Z,-0.70
2023-03-16T04:53:15.534Z,-0.70
2023-03-16T04:55:42.146Z,-0.70
2023-03-16T04:58:08.744Z,-0.80
2023-03-16T05:00:35.318Z,-0.80
2023-03-16T05:03:02.769Z,-0.80
2023-03-16T05:05:29.474Z,-0.90
2023-03-16T05:07:56.048Z,-0.90
2023-03-16T05:10:23.009Z,-0.90
2023-03-16T05:12:49.667Z,-0.90
2023-03-16T05:15:16.391Z,-0.90
2023-03-16T05:17:43.128Z,-1.00
2023-03-16T05:20:15.855Z,-1.00
2023-03-16T05:22:43.465Z,-0.90
2023-03-16T05:25:14.894Z,-0.90
2023-03-16T05:27:42.550Z,-0.90
2023-03-16T05:30:10.492Z,-0.90
2023-03-16T05:32:37.252Z,-1.00
2023-03-16T05:35:04.501Z,-0.90
2023-03-16T05:37:31.312Z,-1.00
2023-03-16T05:39:58.681Z,-0.90
2023-03-16T05:42:26.994Z,-0.90
2023-03-16T05:44:53.851Z,-0.90
2023-03-16T05:47:20.642Z,-0.90
2023-03-16T05:49:47.248Z,-0.90
2023-03-16T05:52:13.880Z,-0.90
2023-03-16T05:54:40.523Z,-1.00
2023-03-16T05:57:07.096Z,-0.90
2023-03-16T05:59:33.733Z,-0.90
2023-03-16T06:02:00.345Z,-0.90
2023-03-16T06:04:27.086Z,-0.90
2023-03-16T06:06:53.813Z,-0.90
2023-03-16T06:09:20.568Z,-0.90
2023-03-16T06:11:47.168Z,-1.00
2023-03-16T06:14:13.717Z,-0.90
2023-03-16T06:16:40.372Z,-0.90
2023-03-16T06:19:07.010Z,-0.90
2023-03-16T06:21:33.616Z,-0.90
2023-03-16T06:24:00.431Z,-0.90
2023-03-16T06:26:27.217Z,-0.90
2023-03-16T06:28:53.789Z,-0.90
2023-03-16T06:31:20.816Z,-0.90
2023-03-16T06:33:47.397Z,-0.80
2023-03-16T06:36:15.015Z,-0.80
2023-03-16T06:38:41.642Z,-0.80
2023-03-16T06:41:08.289Z,-0.80
2023-03-16T06:43:35.083Z,-0.70
2023-03-16T06:46:01.809Z,-0.60
2023-03-16T06:48:28.549Z,-0.60
2023-03-16T06:50:55.457Z,-0.50
2023-03-16T06:53:22.394Z,-0.50
2023-03-16T06:55:49.077Z,-0.40
2023-03-16T06:58:15.753Z,-0.40
2023-03-16T07:00:42.902Z,-0.40
2023-03-16T07:03:09.578Z,-0.40
2023-03-16T07:05:36.151Z,0.20
2023-03-16T07:08:04.266Z,-0.30
2023-03-16T07:10:31.454Z,-0.20
2023-03-16T07:12:58.068Z,-0.10
2023-03-16T07:15:26.554Z,-0.10
2023-03-16T07:17:53.122Z,-0.10
2023-03-16T07:20:21.134Z,-0.10
2023-03-16T07:22:49.411Z,-0.10
2023-03-16T07:25:16.026Z,0.00
2023-03-16T07:27:43.841Z,0.10
2023-03-16T07:30:14.207Z,0.10
2023-03-16T07:32:41.788Z,0.20
2023-03-16T07:35:09.628Z,0.30
2023-03-16T07:37:36.985Z,0.40
2023-03-16T07:40:05.098Z,0.50
2023-03-16T07:42:31.762Z,0.50
2023-03-16T07:44:58.324Z,0.60
2023-03-16T07:47:26.561Z,0.60
2023-03-16T07:49:53.273Z,0.60
2023-03-16T07:52:19.837Z,0.60
2023-03-16T07:54:46.423Z,0.80
2023-03-16T07:57:13.041Z,0.90
2023-03-16T07:59:39.843Z,0.80
2023-03-16T08:02:06.809Z,1.00
2023-03-16T08:04:33.525Z,1.10
2023-03-16T08:07:02.074Z,-1.30
2023-03-16T08:09:28.949Z,1.10
2023-03-16T08:11:55.552Z,1.20
2023-03-16T08:14:22.188Z,1.20
2023-03-16T08:16:48.767Z,1.30
2023-03-16T08:19:15.408Z,1.30
2023-03-16T08:21:59.753Z,1.40
2023-03-16T08:24:28.118Z,1.40
2023-03-16T08:26:54.796Z,1.50
2023-03-16T08:29:21.406Z,1.50
2023-03-16T08:31:47.931Z,1.60
2023-03-16T08:34:16.047Z,1.60
2023-03-16T08:36:43.857Z,1.80
2023-03-16T08:39:12.109Z,1.90
2023-03-16T08:41:40.796Z,3.00
2023-03-16T08:44:07.939Z,2.20
2023-03-16T08:46:35.452Z,2.40
2023-03-16T08:49:02.869Z,2.50
2023-03-16T08:51:29.558Z,2.60
2023-03-16T08:53:56.275Z,2.80
2023-03-16T08:56:22.944Z,2.90
2023-03-16T08:58:50.606Z,3.00
2023-03-16T09:01:19.174Z,3.10
2023-03-16T09:03:46.562Z,3.20
2023-03-16T09:06:14.379Z,3.20
2023-03-16T09:08:41.428Z,3.30
2023-03-16T09:11:09.493Z,3.40
2023-03-16T09:13:36.997Z,3.60
2023-03-16T09:16:03.851Z,3.70
2023-03-16T09:18:31.195Z,3.90
2023-03-16T09:21:00.084Z,3.90
2023-03-16T09:23:27.721Z,4.00
2023-03-16T09:25:57.707Z,4.10
2023-03-16T09:28:25.314Z,4.10
2023-03-16T09:30:51.936Z,4.20
2023-03-16T09:33:18.887Z,4.20
2023-03-16T09:35:46.165Z,4.30
2023-03-16T09:38:12.928Z,4.40
2023-03-16T09:40:39.642Z,4.50
2023-03-16T09:43:29.411Z,4.70
2023-03-16T09:46:02.114Z,4.80
2023-03-16T09:48:30.661Z,4.90
2023-03-16T09:50:58.484Z,5.10
2023-03-16T09:53:30.873Z,5.30
2023-03-16T09:56:03.470Z,5.40
2023-03-16T09:58:32.161Z,5.60
2023-03-16T10:00:58.791Z,5.70
2023-03-16T10:03:52.233Z,5.70
2023-03-16T10:06:19.310Z,5.90
2023-03-16T10:08:51.157Z,6.00
2023-03-16T10:11:22.224Z,6.10
2023-03-16T10:13:52.541Z,6.20
2023-03-16T10:16:27.198Z,6.10
2023-03-16T10:18:58.369Z,6.20
2023-03-16T10:21:25.190Z,6.30
2023-03-16T10:23:52.161Z,6.40
2023-03-16T10:26:23.006Z,6.50
2023-03-16T10:28:49.679Z,6.60
2023-03-16T10:31:17.138Z,6.70
2023-03-16T10:33:43.776Z,8.60
2023-03-16T10:36:13.926Z,7.00
2023-03-16T10:38:43.091Z,7.10
2023-03-16T10:41:19.348Z,7.30
2023-03-16T10:43:47.508Z,7.40
2023-03-16T10:46:15.120Z,7.40
2023-03-16T10:48:42.521Z,7.60
2023-03-16T10:51:13.657Z,7.70
2023-03-16T10:53:44.586Z,7.80
2023-03-16T10:56:13.136Z,7.90
2023-03-16T10:58:42.026Z,8.00
2023-03-16T11:01:17.914Z,8.10
2023-03-16T11:03:47.861Z,8.20
2023-03-16T11:06:20.957Z,8.30
2023-03-16T11:08:48.646Z,8.40
2023-03-16T11:11:24.397Z,8.50
2023-03-16T11:13:55.144Z,8.50
2023-03-16T11:16:24.350Z,8.60
2023-03-16T11:18:54.120Z,8.70
2023-03-16T11:21:30.169Z,8.80
2023-03-16T11:23:58.134Z,8.80
2023-03-16T11:26:30.064Z,8.90
2023-03-16T11:29:03.593Z,9.90
2023-03-16T11:31:42.913Z,9.00
2023-03-16T11:34:14.588Z,8.90
2023-03-16T11:36:50.286Z,9.00
2023-03-16T11:39:23.815Z,9.10
2023-03-16T11:41:58.960Z,9.20
2023-03-16T11:44:34.224Z,9.20
2023-03-16T11:47:03.773Z,9.20
2023-03-16T11:49:33.569Z,9.20
2023-03-16T11:52:19.553Z,9.20
2023-03-16T11:54:53.165Z,9.30
2023-03-16T11:57:38.583Z,9.50
2023-03-16T12:00:12.961Z,9.50
2023-03-16T12:02:43.624Z,9.70
2023-03-16T12:05:10.463Z,9.90
2023-03-16T12:07:56.704Z,10.10
2023-03-16T12:10:34.344Z,10.10
2023-03-16T12:13:27.685Z,10.10
2023-03-16T12:15:56.858Z,10.20
2023-03-16T12:18:23.438Z,10.20
2023-03-16T12:20:53.029Z,10.30
2023-03-16T12:23:22.727Z,10.30
2023-03-16T12:25:50.462Z,10.30
2023-03-16T12:28:27.759Z,10.20
2023-03-16T12:30:58.351Z,10.20
2023-03-16T12:33:44.116Z,10.20
2023-03-16T12:36:10.745Z,10.20
2023-03-16T12:38:43.401Z,10.30
2023-03-16T12:41:10.276Z,10.30
2023-03-16T12:43:49.492Z,10.40
2023-03-16T12:46:22.848Z,10.50
2023-03-16T12:48:52.514Z,10.50
2023-03-16T12:51:19.188Z,10.50
2023-03-16T12:53:53.117Z,10.50
2023-03-16T12:56:20.554Z,10.50
2023-03-16T12:58:48.626Z,9.30
2023-03-16T13:01:16.982Z,10.30
2023-03-16T13:03:44.271Z,10.30
2023-03-16T13:06:34.007Z,11.70
2023-03-16T13:09:04.674Z,10.20
2023-03-16T13:11:50.040Z,10.20
2023-03-16T13:14:29.935Z,11.40
2023-03-16T13:17:05.276Z,12.10
2023-03-16T13:19:37.539Z,10.40
2023-03-16T13:22:17.356Z,10.50
2023-03-16T13:24:49.427Z,10.50
2023-03-16T13:27:20.243Z,12.20
2023-03-16T13:29:54.379Z,10.90
2023-03-16T13:32:21.539Z,11.00
2023-03-16T13:34:49.950Z,11.10
2023-03-16T13:37:18.124Z,11.20
2023-03-16T13:39:53.270Z,11.30
2023-03-16T13:42:20.865Z,11.30
2023-03-16T13:44:48.030Z,11.30
2023-03-16T13:47:16.833Z,12.90
2023-03-16T13:49:48.806Z,11.40
2023-03-16T13:52:25.556Z,12.00
2023-03-16T13:54:52.819Z,11.50
2023-03-16T13:57:24.196Z,11.50
2023-03-16T13:59:51.117Z,11.50
2023-03-16T14:02:18.698Z,11.50
2023-03-16T14:04:45.467Z,11.50
2023-03-16T14:07:17.351Z,11.40
2023-03-16T14:09:46.626Z,11.50
2023-03-16T14:12:14.737Z,11.50
2023-03-16T14:14:41.701Z,11.40
2023-03-16T14:17:12.722Z,14.00
2023-03-16T14:19:44.322Z,11.40
2023-03-16T14:22:15.284Z,11.30
2023-03-16T14:24:42.511Z,11.20
2023-03-16T14:27:15.764Z,11.30
2023-03-16T14:29:43.381Z,11.20
2023-03-16T14:32:23.378Z,11.20
2023-03-16T14:34:51.236Z,11.30
2023-03-16T14:37:19.178Z,12.40
2023-03-16T14:39:46.810Z,11.20
2023-03-16T14:42:27.450Z,11.30
2023-03-16T14:44:54.377Z,11.40
2023-03-16T14:47:22.988Z,11.40
2023-03-16T14:49:49.758Z,11.60
2023-03-16T14:52:16.403Z,11.30
2023-03-16T14:54:43.010Z,11.30
2023-03-16T14:57:15.575Z,11.30
2023-03-16T14:59:43.359Z,11.20
2023-03-16T15:02:15.322Z,11.20
2023-03-16T15:04:42.064Z,11.20
2023-03-16T15:07:19.456Z,11.20
2023-03-16T15:09:46.152Z,11.20
2023-03-16T15:12:17.900Z,11.20
2023-03-16T15:15:03.380Z,11.20
2023-03-16T15:17:30.449Z,11.20
2023-03-16T15:19:57.044Z,11.20
2023-03-16T15:22:35.495Z,11.20
2023-03-16T15:25:18.150Z,11.30
2023-03-16T15:27:44.916Z,11.30
2023-03-16T15:30:15.840Z,11.30
2023-03-16T15:32:42.581Z,11.30
2023-03-16T15:35:09.505Z,12.80
2023-03-16T15:37:37.423Z,11.20
2023-03-16T15:40:15.587Z,11.10
2023-03-16T15:42:44.081Z,11.10
2023-03-16T15:45:13.102Z,11.00
2023-03-16T15:47:42.252Z,11.00
2023-03-16T15:50:13.593Z,12.60
2023-03-16T15:52:42.027Z,10.90
2023-03-16T15:55:33.127Z,10.90
2023-03-16T15:58:00.286Z,10.80
2023-03-16T16:00:35.001Z,10.80
2023-03-16T16:03:02.796Z,10.70
2023-03-16T16:05:30.902Z,10.70
2023-03-16T16:07:57.748Z,10.70
2023-03-16T16:10:24.780Z,10.70
2023-03-16T16:12:52.227Z,10.70
2023-03-16T16:15:20.016Z,10.70
2023-03-16T16:18:07.443Z,10.70
2023-03-16T16:20:33.863Z,11.30
2023-03-16T16:23:03.003Z,13.60
2023-03-16T16:25:35.252Z,12.20
2023-03-16T16:28:02.085Z,11.00
2023-03-16T16:30:30.837Z,10.00
2023-03-16T16:32:58.926Z,10.70
2023-03-16T16:35:29.928Z,10.70
2023-03-16T16:37:56.614Z,11.20
2023-03-16T16:40:25.757Z,10.50
2023-03-16T16:42:53.309Z,10.50
2023-03-16T16:45:25.134Z,10.40
2023-03-16T16:47:52.935Z,10.30
2023-03-16T16:50:21.616Z,10.30
2023-03-16T16:52:49.131Z,10.20
2023-03-16T16:55:15.829Z,10.10
2023-03-16T16:57:42.881Z,10.00
2023-03-16T17:00:19.788Z,9.90
2023-03-16T17:02:53.672Z,9.90
2023-03-16T17:05:22.143Z,9.80
2023-03-16T17:07:49.624Z,9.90
2023-03-16T17:10:27.191Z,9.80
2023-03-16T17:12:56.037Z,9.70
2023-03-16T17:15:28.190Z,11.70
2023-03-16T17:17:58.552Z,9.60
2023-03-16T17:20:25.960Z,9.60
2023-03-16T17:22:54.568Z,9.60
2023-03-16T17:25:21.365Z,9.50
2023-03-16T17:27:49.332Z,9.50
2023-03-16T17:30:20.782Z,9.40
2023-03-16T17:32:48.543Z,9.30
2023-03-16T17:35:15.619Z,9.30
2023-03-16T17:37:42.842Z,9.10
2023-03-16T17:40:16.384Z,9.90
2023-03-16T17:42:43.534Z,9.00
2023-03-16T17:45:30.660Z,9.00
2023-03-16T17:47:57.583Z,8.90
2023-03-16T17:50:26.717Z,8.80
2023-03-16T17:52:54.166Z,8.80
2023-03-16T17:55:24.869Z,8.70
2023-03-16T17:57:53.734Z,8.50
2023-03-16T18:00:34.184Z,9.60
2023-03-16T18:03:05.174Z,8.40
2023-03-16T18:05:33.405Z,9.60
2023-03-16T18:08:01.714Z,8.20
2023-03-16T18:10:29.244Z,8.20
2023-03-16T18:12:57.892Z,8.10
2023-03-16T18:15:26.556Z,8.00
2023-03-16T18:17:53.822Z,8.00
2023-03-16T18:20:32.670Z,8.00
2023-03-16T18:23:00.124Z,8.00
2023-03-16T18:25:28.665Z,8.00
2023-03-16T18:27:55.314Z,10.50
2023-03-16T18:30:21.999Z,8.00
2023-03-16T18:32:48.638Z,8.00
2023-03-16T18:35:16.787Z,8.00
2023-03-16T18:37:43.462Z,7.90
2023-03-16T18:40:12.345Z,7.90
2023-03-16T18:42:38.957Z,7.90
2023-03-16T18:45:05.937Z,7.90
2023-03-16T18:47:33.043Z,7.90
2023-03-16T18:49:59.699Z,7.90
2023-03-16T18:52:29.162Z,8.00
2023-03-16T18:54:57.669Z,8.00
2023-03-16T18:57:26.475Z,8.00
2023-03-16T18:59:53.492Z,9.20
2023-03-16T19:02:39.504Z,8.00
2023-03-16T19:05:14.359Z,7.90
2023-03-16T19:07:42.741Z,7.90
2023-03-16T19:10:24.704Z,7.80
2023-03-16T19:12:52.494Z,7.70
2023-03-16T19:15:39.259Z,7.70
2023-03-16T19:18:06.265Z,7.60
2023-03-16T19:20:33.389Z,7.60
2023-03-16T19:23:07.488Z,7.60
2023-03-16T19:25:36.266Z,7.50
2023-03-16T19:28:05.639Z,7.40
2023-03-16T19:30:33.681Z,7.40
2023-03-16T19:33:00.751Z,7.40
2023-03-16T19:35:48.520Z,7.30
2023-03-16T19:38:15.653Z,7.20
2023-03-16T19:40:42.480Z,7.10
2023-03-16T19:43:17.355Z,7.10
2023-03-16T19:45:44.629Z,7.00
2023-03-16T19:48:22.825Z,7.00
2023-03-16T19:50:50.197Z,6.80
2023-03-16T19:53:18.079Z,6.80
2023-03-16T19:55:46.704Z,6.70
2023-03-16T19:58:34.990Z,6.60
2023-03-16T20:01:02.229Z,6.50
2023-03-16T20:03:31.713Z,6.40
2023-03-16T20:06:00.845Z,6.30
2023-03-16T20:08:30.111Z,6.10
2023-03-16T20:10:59.556Z,6.10
2023-03-16T20:13:26.429Z,6.00
2023-03-16T20:15:53.442Z,5.90
2023-03-16T20:18:20.154Z,5.90
2023-03-16T20:20:47.538Z,5.80
2023-03-16T20:23:23.007Z,5.80
2023-03-16T20:25:51.002Z,5.70
2023-03-16T20:28:22.841Z,5.70
2023-03-16T20:30:50.185Z,5.60
2023-03-16T20:33:18.709Z,5.50
2023-03-16T20:35:46.233Z,5.50
2023-03-16T20:38:13.953Z,5.40
2023-03-16T20:40:41.442Z,5.40
2023-03-16T20:43:18.857Z,5.40
2023-03-16T20:45:46.112Z,5.30
2023-03-16T20:48:16.411Z,5.20
2023-03-16T20:50:43.243Z,5.20
2023-03-16T20:53:09.885Z,5.10
2023-03-16T20:55:37.720Z,5.00
2023-03-16T20:58:05.779Z,5.00
2023-03-16T21:00:34.697Z,4.90
2023-03-16T21:03:02.318Z,4.80
2023-03-16T21:05:29.950Z,4.80
2023-03-16T21:07:56.916Z,4.80
2023-03-16T21:10:25.867Z,4.80
2023-03-16T21:12:53.863Z,4.80
2023-03-16T21:15:25.471Z,4.70
2023-03-16T21:18:02.596Z,4.70
2023-03-16T21:20:30.775Z,4.60
2023-03-16T21:22:58.074Z,4.50
2023-03-16T21:25:26.161Z,4.50
2023-03-16T21:27:54.153Z,4.50
2023-03-16T21:30:35.313Z,4.50
2023-03-16T21:33:02.265Z,4.40
2023-03-16T21:35:33.363Z,4.40
2023-03-16T21:38:11.770Z,4.40
2023-03-16T21:40:38.632Z,4.40
2023-03-16T21:43:05.364Z,4.40
2023-03-16T21:45:32.237Z,4.40
2023-03-16T21:47:59.202Z,4.40
2023-03-16T21:50:31.751Z,4.40
2023-03-16T21:52:58.610Z,4.50
2023-03-16T21:55:27.058Z,4.50
2023-03-16T21:57:54.064Z,4.50
2023-03-16T22:00:24.744Z,4.50
2023-03-16T22:02:52.865Z,4.50
2023-03-16T22:05:33.693Z,4.60
2023-03-16T22:08:01.808Z,4.50
2023-03-16T22:10:29.803Z,4.50
2023-03-16T22:12:56.940Z,4.40
2023-03-16T22:15:27.954Z,4.40
2023-03-16T22:17:55.361Z,4.30
2023-03-16T22:20:24.374Z,4.30
2023-03-16T22:22:51.425Z,4.30
2023-03-16T22:25:19.484Z,4.10
2023-03-16T22:27:46.349Z,4.10
2023-03-16T22:30:17.884Z,4.10
2023-03-16T22:32:46.205Z,4.00
2023-03-16T22:35:28.158Z,4.00
2023-03-16T22:37:56.198Z,4.00
2023-03-16T22:40:29.052Z,4.00
2023-03-16T22:42:56.667Z,4.00
2023-03-16T22:45:24.421Z,4.00
2023-03-16T22:47:51.456Z,3.90
2023-03-16T22:50:19.223Z,3.80
2023-03-16T22:52:47.552Z,3.70
2023-03-16T22:55:31.685Z,3.60
2023-03-16T22:58:12.003Z,3.50
2023-03-16T23:00:38.763Z,3.50
2023-03-16T23:03:05.602Z,3.50
2023-03-16T23:05:32.372Z,3.40
2023-03-16T23:08:00.384Z,3.40
2023-03-16T23:10:30.053Z,3.30
2023-03-16T23:12:59.408Z,3.30
2023-03-16T23:15:28.587Z,3.30
2023-03-16T23:17:55.805Z,3.20
2023-03-16T23:20:28.487Z,3.20
2023-03-16T23:22:55.402Z,3.20
2023-03-16T23:25:22.732Z,3.20
2023-03-16T23:27:50.002Z,3.30
2023-03-16T23:30:19.542Z,3.20
2023-03-16T23:32:46.455Z,3.00
2023-03-16T23:35:14.780Z,2.90
2023-03-16T23:37:41.370Z,2.80
2023-03-16T23:40:08.135Z,2.80
2023-03-16T23:42:34.867Z,2.80
2023-03-16T23:45:05.414Z,2.80
2023-03-16T23:47:32.019Z,2.70
2023-03-16T23:49:58.715Z,2.70
2023-03-16T23:52:25.492Z,2.60
2023-03-16T23:54:52.323Z,2.50
2023-03-16T23:57:18.905Z,2.50
2023-03-16T23:59:45.539Z,2.40
